CheckWX is a tool to help pilots better visualize weather data.  It is not intended as a substitute for an official pre-flight weather briefing.

07:12:56 UTC

KOGB METAR
Orangeburg Municipal Airport
Orangeburg, South Carolina, USA
Current

20 mins ago

KOGB 230653Z AUTO 00000KT 10SM CLR 18/16 A3011 RMK AO2 SLP194 T01780161
Observed
Sep-23 @ 06:53 UTC
Visibility
10 SM
Flight Rules
VFR
Cloud Levels
  • Clear skies
Temperature
18°C / 64°F
Dewpoint
16°C / 61°F
Humidity
88%
Altimeter
30.11" Hg
Pressure
1019.62 hPa
Previous

1 hour ago

KOGB 230553Z AUTO 00000KT 10SM CLR 18/16 A3013 RMK AO2 SLP199 T01830161 10256 20183 56009
Observed
Sep-23 @ 05:53 UTC
Visibility
10 SM
Flight Rules
VFR
Cloud Levels
  • Clear skies
Temperature
18°C / 64°F
Dewpoint
16°C / 61°F
Humidity
88%
Altimeter
30.13" Hg
Pressure
1020.32 hPa
Previous

2 hours ago

KOGB 230453Z AUTO 00000KT 10SM CLR 19/17 A3013 RMK AO2 SLP201 T01890167 403170139
Observed
Sep-23 @ 04:53 UTC
Visibility
10 SM
Flight Rules
VFR
Cloud Levels
  • Clear skies
Temperature
19°C / 66°F
Dewpoint
17°C / 63°F
Humidity
88%
Altimeter
30.13" Hg
Pressure
1020.32 hPa